Domov               UVHVVR             MKGP            O straneh              
ZDRAVSTVENO VARSTVO RASTLIN
  MREŽA AGROMET. POSTAJ
 ► PROGNOSTIČNA OBVESTILA
AGROMETEOROLOŠKI PODATKI -
ARSO
OBVLADOVANJE TVEGANJ ZARADI
NEUGODNIH VREMENSKIH RAZMER
  ► NARAVNE NESREČE
  ► SUŠA/MOČA
  ► NAMAKANJE
  ► ŽLED (gozdarstvo)
KARTOGRAFSKI PRIKAZI
SPLETNE POVEZAVE
PROJEKTI IN PUBLIKACIJE

AGROMETEOROLOŠKA MREŽA: VREMENSKE POSTAJE IN FENOLOŠKA OPAZOVANJA

Pregled podatkov za lokacijo Radlje ob Dravi, meteorološka postaja 857248

Pregled senzorjev na lokaciji

ID Ime Zadnja
vrednost
Datum
zadnje
spremembe
Tip
senzorja
3912 Temperatura 2 m ( °C) 13,07 °C 24.8.2017 08:30 50YA
3913 Relativna vlaga 2 m (% RH) 100 % RH 24.8.2017 08:30 50YA
3914 Omočenost lista (U) 0 U 24.8.2017 08:30 A730WET
3915 Hitrost vetra (km/h) 0,75 km/h 24.8.2017 08:30 566.2S-176 (200km/h)
3916 Padavine 0.2 mm (mm) 0 mm 24.8.2017 08:30 Rain-O-Matic
3917 Smer vetra (°) 140,18 ° 24.8.2017 08:30 566.2S-130

Pregled podatkov zadnjih 24 ur

Zap.
št.
Datum in čas Radlje ob Dravi
Hitrost
vetra
Omočenost
lista
Padavine
0.2
mm
Relativna
vlaga
2
m
Smer
vetra
Temperatura
2
m
0 24.8.2017 07:30 0,75 0 0 100 140,18 13,07
1 24.8.2017 07:00 0,47 0 0 100 24,45 12,67
2 24.8.2017 06:30 0,49 1 0 100 24,46 12,32
3 24.8.2017 06:00 0,61 10 0 100 24,43 12,16
4 24.8.2017 05:30 0,57 10 0 100 24,48 12,04
5 24.8.2017 05:00 0,57 10 0 100 24,47 11,71
6 24.8.2017 04:30 0,57 10 0 100 24,47 11,34
7 24.8.2017 04:00 0,58 10 0 99,9 24,46 11,14
8 24.8.2017 03:30 0,57 10 0 99,48 24,47 11,36
9 24.8.2017 03:00 0,57 10 0 99,56 24,46 11,63
10 24.8.2017 02:30 0,57 10 0 99,08 24,46 11,44
11 24.8.2017 02:00 0,57 10 0 98,77 24,47 12,13
12 24.8.2017 01:30 0,57 10 0 98,67 24,47 12,52
13 24.8.2017 01:00 0,57 10 0 98,02 24,46 12,62
14 24.8.2017 00:30 0,57 10 0 97,76 24,46 12,84
15 24.8.2017 00:00 0,57 10 0 96,99 24,46 13,2
16 23.8.2017 23:30 0,57 10 0 96,33 24,47 13,43
17 23.8.2017 23:00 0,56 9 0 96,22 24,47 13,76
18 23.8.2017 22:30 0,55 8 0 95,04 24,48 14,03
19 23.8.2017 22:00 0,53 5 0 94,47 24,47 14,33
20 23.8.2017 21:30 0,53 2 0 93,18 24,48 14,85
21 23.8.2017 21:00 0,49 1 0 91,39 24,47 15,38
22 23.8.2017 20:30 0,48 0 0 89,47 24,48 15,98
23 23.8.2017 20:00 0,49 0 0 84,85 24,48 17,04
24 23.8.2017 19:30 0,54 0 0 77,69 24,48 18,37
25 23.8.2017 19:00 0,59 0 0 71,84 297,41 19,39
26 23.8.2017 18:30 2,08 0 0 66,02 4,87 20,74
27 23.8.2017 18:00 1,47 0 0 58,11 25 23,07
28 23.8.2017 17:30 0,83 0 0 51,04 37,35 24,87
29 23.8.2017 17:00 1,18 0 0 47,86 326,43 24,88
30 23.8.2017 16:30 2,22 0 0 47,55 346,71 25,14
31 23.8.2017 16:00 1,89 0 0 47,14 351,18 25,24
32 23.8.2017 15:30 3,68 0 0 47,11 349,94 25,04
33 23.8.2017 15:00 1,9 0 0 47,21 201,27 24,99
34 23.8.2017 14:30 2,27 0 0 47,77 286,13 24,69
35 23.8.2017 14:00 2,57 0 0 47,52 345,68 24,31
36 23.8.2017 13:30 2,58 0 0 48,88 290,79 23,54
37 23.8.2017 13:00 2,9 0 0 48,85 292,09 23,83
38 23.8.2017 12:30 2,09 0 0 50,56 127,95 23,56
39 23.8.2017 12:00 1,61 0 0 50,99 169,05 22,7
40 23.8.2017 11:30 1,7 0 0 52,96 249,15 21,82
41 23.8.2017 11:00 1 0 0 52,88 345,73 21,17
42 23.8.2017 10:30 0,91 0 0 56,31 329,07 20,31
43 23.8.2017 10:00 1,07 0 0 66,49 181,95 18,38
44 23.8.2017 09:30 0,59 1 0 71,6 227,78 17,3
45 23.8.2017 09:00 0,74 9 0 83,4 116,5 15,19
© 2011 Ministrstvo za kmetijstvo, gozdarstvo in prehrano. Vse pravice pridržane.